Time;durP1;ratioP1;P1;durP2;ratioP2;P2;SDS_P1;SDS_P2;PMS_P1;PMS_P2;Temp;Humidity;BMP_temperature;BMP_pressure;BME280_temperature;BME280_humidity;BME280_pressure;Samples;Min_cycle;Max_cycle;Signal;HPM_P1;HPM_P2
2023/08/06 00:02:16;;;;;;;4.10;3.70;;;15.50;99.90;;;;;;5000979;28;20290;-80
2023/08/06 00:04:44;;;;;;;6.30;4.47;;;15.50;99.90;;;;;;5000270;28;20328;-77
2023/08/06 00:07:11;;;;;;;4.25;3.83;;;15.40;99.90;;;;;;5006773;28;20286;-79
2023/08/06 00:09:38;;;;;;;4.95;3.35;;;15.40;99.90;;;;;;4998323;28;20290;-79
2023/08/06 00:12:06;;;;;;;3.70;3.40;;;15.50;99.90;;;;;;5002373;28;20309;-78
2023/08/06 00:14:34;;;;;;;4.65;4.22;;;15.40;99.90;;;;;;5011159;28;20320;-78
2023/08/06 00:17:01;;;;;;;3.90;3.50;;;15.50;99.90;;;;;;5000144;28;20733;-78
2023/08/06 00:19:27;;;;;;;4.72;4.32;;;15.50;99.90;;;;;;4999731;28;20293;-81
2023/08/06 00:21:56;;;;;;;4.07;3.65;;;15.50;99.90;;;;;;4997416;28;20218;-79
2023/08/06 00:24:23;;;;;;;4.85;4.15;;;15.60;99.90;;;;;;5008595;28;20225;-79
2023/08/06 00:26:50;;;;;;;4.25;3.90;;;15.50;99.90;;;;;;5007471;28;20238;-80
2023/08/06 00:29:17;;;;;;;3.75;3.40;;;15.50;99.90;;;;;;5009062;28;20279;-81
2023/08/06 00:31:45;;;;;;;6.40;5.13;;;15.50;99.90;;;;;;5011324;28;20198;-80
2023/08/06 00:34:12;;;;;;;5.75;5.13;;;15.50;99.90;;;;;;4995552;28;20227;-78
2023/08/06 00:36:38;;;;;;;4.85;4.35;;;15.50;99.90;;;;;;5006913;28;20296;-78
2023/08/06 00:39:07;;;;;;;6.07;5.10;;;15.50;99.90;;;;;;5010625;28;20344;-80
2023/08/06 00:41:34;;;;;;;7.72;5.70;;;15.50;99.90;;;;;;5010329;28;20220;-80
2023/08/06 00:44:01;;;;;;;6.38;5.50;;;15.50;99.90;;;;;;5007272;28;20724;-79
2023/08/06 00:46:28;;;;;;;6.82;6.13;;;15.50;99.90;;;;;;4998398;28;20235;-79
2023/08/06 00:48:56;;;;;;;7.07;6.32;;;15.50;99.90;;;;;;5004138;28;20563;-80
2023/08/06 00:51:24;;;;;;;7.05;6.32;;;15.60;99.90;;;;;;4999702;28;20732;-79
2023/08/06 00:53:53;;;;;;;6.20;5.60;;;15.50;99.90;;;;;;5003028;28;20328;-80
2023/08/06 00:56:21;;;;;;;9.45;6.80;;;15.60;99.90;;;;;;4997300;28;20289;-81
2023/08/06 00:58:48;;;;;;;8.32;6.80;;;15.70;99.90;;;;;;4995698;28;20289;-79
2023/08/06 01:01:15;;;;;;;9.48;6.88;;;15.70;99.90;;;;;;5000447;28;20727;-79
2023/08/06 01:03:43;;;;;;;8.13;7.05;;;15.70;99.90;;;;;;5002851;28;20232;-78
2023/08/06 01:06:10;;;;;;;10.82;7.10;;;15.70;99.90;;;;;;5004104;28;20239;-79
2023/08/06 01:08:47;;;;;;;7.30;6.60;;;15.60;99.90;;;;;;5008266;28;20617;-79
2023/08/06 01:11:25;;;;;;;7.50;6.22;;;15.60;99.90;;;;;;4994949;28;20207;-81
2023/08/06 01:14:07;;;;;;;7.55;6.75;;;15.70;99.90;;;;;;5007514;28;20309;-78
2023/08/06 01:16:36;;;;;;;6.82;5.90;;;15.70;99.90;;;;;;5007451;28;20206;-80
2023/08/06 01:19:03;;;;;;;8.70;6.60;;;15.70;99.90;;;;;;4997705;28;20207;-78
2023/08/06 01:21:32;;;;;;;7.80;6.85;;;15.70;99.90;;;;;;5000711;28;20214;-77
2023/08/06 01:23:59;;;;;;;8.35;6.25;;;15.70;99.90;;;;;;5007992;28;20238;-79
2023/08/06 01:26:31;;;;;;;8.25;5.32;;;15.60;99.90;;;;;;5005050;28;20290;-80
2023/08/06 01:29:07;;;;;;;6.75;5.30;;;15.60;99.90;;;;;;5003002;28;20218;-78
2023/08/06 01:31:38;;;;;;;7.72;6.35;;;15.60;99.90;;;;;;4987308;28;20209;-77
2023/08/06 01:34:08;;;;;;;6.38;5.32;;;15.60;99.90;;;;;;5013053;28;20227;-79
2023/08/06 01:36:39;;;;;;;5.60;5.10;;;15.60;99.90;;;;;;5015463;28;20619;-78
2023/08/06 01:39:06;;;;;;;5.10;4.60;;;15.70;99.90;;;;;;5021253;28;20212;-78
2023/08/06 01:41:33;;;;;;;8.18;7.38;;;15.60;99.90;;;;;;5020299;28;20205;-78
2023/08/06 01:44:01;;;;;;;8.07;6.03;;;15.60;99.90;;;;;;5008864;28;20225;-78
2023/08/06 01:46:27;;;;;;;7.00;6.30;;;15.50;99.90;;;;;;5002457;28;20261;-79
2023/08/06 01:48:54;;;;;;;6.25;5.65;;;15.40;99.90;;;;;;5017704;28;20684;-77
2023/08/06 01:51:21;;;;;;;6.68;6.00;;;15.40;99.90;;;;;;5011300;28;20288;-78
2023/08/06 01:53:50;;;;;;;6.57;5.53;;;15.50;99.90;;;;;;5011457;28;20237;-79
2023/08/06 01:56:17;;;;;;;7.28;5.05;;;15.40;99.90;;;;;;5011017;28;20283;-80
2023/08/06 01:58:45;;;;;;;6.50;5.90;;;15.50;99.90;;;;;;5004226;28;20213;-78
2023/08/06 02:01:11;;;;;;;5.57;5.00;;;15.50;99.90;;;;;;5009507;28;20326;-78
2023/08/06 02:03:38;;;;;;;5.93;4.28;;;15.50;99.90;;;;;;5016574;28;20293;-79
2023/08/06 02:06:05;;;;;;;6.18;5.55;;;15.50;99.90;;;;;;5017528;28;20242;-79
2023/08/06 02:08:33;;;;;;;6.88;5.85;;;15.50;99.90;;;;;;5006586;28;20285;-79
2023/08/06 02:11:02;;;;;;;5.95;5.05;;;15.50;99.90;;;;;;5011584;28;20639;-79
2023/08/06 02:13:29;;;;;;;6.53;5.93;;;15.40;99.90;;;;;;5004980;28;20233;-78
2023/08/06 02:15:56;;;;;;;4.97;4.50;;;15.40;99.90;;;;;;5001451;28;20210;-78
2023/08/06 02:18:24;;;;;;;8.85;5.78;;;15.40;99.90;;;;;;5016655;28;20427;-78
2023/08/06 02:21:01;;;;;;;6.93;6.32;;;15.40;99.90;;;;;;5015456;28;20284;-78
2023/08/06 02:23:28;;;;;;;5.03;4.63;;;15.30;99.90;;;;;;5016043;28;20707;-77
2023/08/06 02:26:01;;;;;;;6.75;5.65;;;15.30;99.90;;;;;;5002990;28;20206;-78
2023/08/06 02:28:29;;;;;;;5.10;4.60;;;15.50;99.90;;;;;;5005931;28;20202;-78
2023/08/06 02:30:56;;;;;;;5.80;5.30;;;15.40;99.90;;;;;;5002865;28;20686;-79
2023/08/06 02:33:23;;;;;;;7.45;5.40;;;15.40;99.90;;;;;;5010562;28;20711;-77
2023/08/06 02:35:50;;;;;;;9.85;7.75;;;15.50;99.90;;;;;;5010287;28;20386;-78
2023/08/06 02:38:17;;;;;;;7.95;7.10;;;15.40;99.90;;;;;;5003377;28;20203;-78
2023/08/06 02:40:45;;;;;;;9.27;8.20;;;15.50;99.90;;;;;;5010138;28;20260;-78
2023/08/06 02:43:14;;;;;;;13.32;10.52;;;15.40;99.90;;;;;;5009859;28;20229;-79
2023/08/06 02:45:41;;;;;;;9.38;8.43;;;15.40;99.90;;;;;;5006014;28;20193;-79
2023/08/06 02:48:08;;;;;;;8.60;7.80;;;15.40;99.90;;;;;;5006053;28;20253;-78
2023/08/06 02:50:41;;;;;;;10.32;7.13;;;15.50;99.90;;;;;;5006171;28;20256;-78
2023/08/06 02:53:09;;;;;;;8.95;7.10;;;15.40;99.90;;;;;;5000333;28;20299;-78
2023/08/06 02:55:36;;;;;;;8.07;6.97;;;15.40;99.90;;;;;;5001596;28;20230;-78
2023/08/06 02:58:03;;;;;;;10.18;8.10;;;15.40;99.90;;;;;;4997540;28;20301;-78
2023/08/06 03:00:31;;;;;;;7.28;6.20;;;15.40;99.90;;;;;;5006804;28;20271;-79
2023/08/06 03:02:58;;;;;;;8.57;6.63;;;15.40;99.90;;;;;;4997784;28;20309;-78
2023/08/06 03:05:26;;;;;;;8.20;7.40;;;15.40;99.90;;;;;;5005187;28;20244;-79
2023/08/06 03:07:53;;;;;;;7.70;6.95;;;15.30;99.90;;;;;;4997189;28;20397;-79
2023/08/06 03:10:20;;;;;;;8.93;6.20;;;15.30;99.90;;;;;;5005640;28;20205;-78
2023/08/06 03:12:47;;;;;;;7.68;6.88;;;15.40;99.90;;;;;;4999236;28;20234;-79
2023/08/06 03:15:14;;;;;;;8.38;7.68;;;15.30;99.90;;;;;;5002844;28;20207;-78
2023/08/06 03:17:44;;;;;;;9.75;8.82;;;15.30;99.90;;;;;;5003176;28;20240;-79
2023/08/06 03:20:11;;;;;;;7.63;6.93;;;15.20;99.90;;;;;;4999890;28;20296;-78
2023/08/06 03:22:38;;;;;;;8.32;7.30;;;15.20;99.90;;;;;;5002005;28;20204;-79
2023/08/06 03:25:07;;;;;;;7.80;7.00;;;15.30;99.90;;;;;;5004783;28;20280;-79
2023/08/06 03:27:34;;;;;;;6.30;5.70;;;15.30;99.90;;;;;;4999725;28;20238;-78
2023/08/06 03:30:01;;;;;;;7.15;6.55;;;15.30;99.90;;;;;;5011204;28;20294;-78
2023/08/06 03:32:28;;;;;;;6.78;6.18;;;15.30;99.90;;;;;;5010138;28;20218;-79
2023/08/06 03:34:56;;;;;;;7.85;6.97;;;15.40;99.90;;;;;;5004412;28;20312;-78
2023/08/06 03:37:23;;;;;;;6.88;6.28;;;15.40;99.90;;;;;;5000020;28;20293;-79
2023/08/06 03:39:50;;;;;;;7.22;6.20;;;15.40;99.90;;;;;;5002510;28;20287;-79
2023/08/06 03:42:17;;;;;;;6.65;5.97;;;15.40;99.90;;;;;;5004375;28;20312;-79
2023/08/06 03:44:44;;;;;;;15.07;7.45;;;15.40;99.90;;;;;;4999128;28;20273;-78
2023/08/06 03:47:10;;;;;;;7.35;6.75;;;15.40;99.90;;;;;;5002484;28;20292;-77
2023/08/06 03:49:37;;;;;;;7.15;6.45;;;15.40;99.90;;;;;;5000955;28;20281;-78
2023/08/06 03:52:06;;;;;;;7.63;5.65;;;15.40;99.90;;;;;;5007639;28;20234;-78
2023/08/06 03:54:33;;;;;;;6.90;6.22;;;15.50;99.90;;;;;;5007641;28;20235;-79
2023/08/06 03:57:00;;;;;;;7.75;6.50;;;15.50;99.90;;;;;;5013776;28;20574;-78
2023/08/06 03:59:27;;;;;;;7.18;6.38;;;15.50;99.90;;;;;;5008209;28;20292;-77
2023/08/06 04:01:54;;;;;;;7.88;7.18;;;15.60;99.90;;;;;;5002922;28;20269;-78
2023/08/06 04:04:21;;;;;;;7.90;7.10;;;15.50;99.90;;;;;;5006627;28;20315;-77
2023/08/06 04:06:48;;;;;;;8.30;7.60;;;15.50;99.90;;;;;;5003020;28;20202;-78
2023/08/06 04:09:16;;;;;;;11.73;9.63;;;15.50;99.90;;;;;;5010923;28;20235;-78
2023/08/06 04:11:43;;;;;;;10.93;7.80;;;15.40;99.90;;;;;;5007036;28;20203;-78
2023/08/06 04:14:10;;;;;;;9.20;8.35;;;15.40;99.90;;;;;;5006211;28;20287;-77
2023/08/06 04:16:37;;;;;;;10.18;8.32;;;15.40;99.90;;;;;;5014065;28;20248;-79
2023/08/06 04:19:06;;;;;;;11.00;8.60;;;15.40;99.90;;;;;;5014446;28;20212;-79
2023/08/06 04:21:34;;;;;;;9.38;8.48;;;15.40;99.90;;;;;;5013415;28;20308;-77
2023/08/06 04:24:01;;;;;;;8.60;7.85;;;15.50;99.90;;;;;;5014146;28;20774;-78
2023/08/06 04:26:30;;;;;;;9.10;8.20;;;15.50;99.90;;;;;;5012187;28;20206;-79
2023/08/06 04:28:57;;;;;;;10.95;9.80;;;15.50;99.90;;;;;;5013765;28;20640;-78
2023/08/06 04:31:24;;;;;;;11.05;10.02;;;15.50;99.90;;;;;;5010022;28;20306;-77
2023/08/06 04:33:51;;;;;;;9.65;8.80;;;15.50;99.90;;;;;;5008644;28;20273;-78
2023/08/06 04:36:18;;;;;;;10.25;9.35;;;15.50;99.90;;;;;;5000006;28;20209;-78
2023/08/06 04:38:47;;;;;;;10.25;9.27;;;15.50;99.90;;;;;;5002739;28;20238;-78
2023/08/06 04:41:14;;;;;;;10.50;9.50;;;15.50;99.90;;;;;;5004848;28;20233;-78
2023/08/06 04:43:42;;;;;;;10.88;9.65;;;15.50;99.90;;;;;;5001910;28;20311;-77
2023/08/06 04:46:09;;;;;;;10.02;9.00;;;15.50;99.90;;;;;;5002331;28;20222;-78
2023/08/06 04:48:36;;;;;;;13.43;10.50;;;15.60;99.90;;;;;;5002338;28;20240;-77
2023/08/06 04:51:03;;;;;;;10.93;9.82;;;15.70;99.90;;;;;;5009730;28;20608;-77
2023/08/06 04:53:29;;;;;;;10.45;9.35;;;15.70;99.90;;;;;;5013936;28;20237;-77
2023/08/06 04:55:56;;;;;;;10.75;9.75;;;15.80;99.90;;;;;;5005224;28;20289;-79
2023/08/06 04:58:23;;;;;;;13.03;11.23;;;15.80;99.90;;;;;;5008898;28;20306;-76
2023/08/06 05:00:52;;;;;;;9.93;9.07;;;15.80;99.90;;;;;;5007057;28;20582;-77
2023/08/06 05:03:19;;;;;;;15.45;12.20;;;15.90;99.90;;;;;;5008937;28;20289;-77
2023/08/06 05:05:51;;;;;;;14.32;12.65;;;15.90;99.90;;;;;;5008342;28;20207;-77
2023/08/06 05:08:18;;;;;;;11.77;10.60;;;15.80;99.90;;;;;;4999556;28;20289;-77
2023/08/06 05:10:48;;;;;;;11.85;10.65;;;15.80;99.90;;;;;;5009056;28;20253;-77
2023/08/06 05:13:14;;;;;;;13.30;12.02;;;15.70;99.90;;;;;;5012096;28;20309;-78
2023/08/06 05:15:42;;;;;;;11.02;10.02;;;15.90;99.90;;;;;;5011098;28;20211;-77
2023/08/06 05:18:11;;;;;;;14.48;10.80;;;16.00;99.90;;;;;;5002507;28;20219;-79
2023/08/06 05:20:38;;;;;;;10.93;9.93;;;16.00;99.90;;;;;;5008580;28;20231;-77
2023/08/06 05:23:05;;;;;;;12.25;11.05;;;16.00;99.90;;;;;;5012538;28;20463;-76
2023/08/06 05:25:32;;;;;;;12.80;10.18;;;16.10;99.90;;;;;;5000733;28;20639;-77
2023/08/06 05:28:01;;;;;;;11.68;9.85;;;16.10;99.90;;;;;;5012368;28;20623;-77
2023/08/06 05:30:28;;;;;;;12.93;10.35;;;16.10;99.90;;;;;;5006123;28;20215;-77
2023/08/06 05:32:57;;;;;;;11.32;10.13;;;16.10;99.90;;;;;;5007600;28;20257;-77
2023/08/06 05:35:25;;;;;;;10.52;9.43;;;16.20;99.90;;;;;;5003139;28;20295;-77
2023/08/06 05:37:54;;;;;;;8.07;7.40;;;16.30;99.90;;;;;;5005385;28;20676;-77
2023/08/06 05:40:21;;;;;;;12.38;9.32;;;16.50;99.90;;;;;;5010949;28;20282;-76
2023/08/06 05:42:48;;;;;;;10.93;9.90;;;16.50;99.90;;;;;;5012421;28;20226;-77
2023/08/06 05:45:15;;;;;;;9.52;8.45;;;16.60;99.90;;;;;;5009113;28;20316;-77
2023/08/06 05:47:43;;;;;;;8.25;7.53;;;16.60;99.90;;;;;;5013127;28;20626;-77
2023/08/06 05:50:10;;;;;;;9.25;8.45;;;16.70;99.90;;;;;;5008109;28;20291;-76
2023/08/06 05:52:38;;;;;;;9.95;8.95;;;16.80;99.90;;;;;;5004878;28;20742;-76
2023/08/06 05:55:06;;;;;;;10.10;9.23;;;16.90;99.90;;;;;;5010542;28;20243;-77
2023/08/06 05:57:33;;;;;;;8.60;7.80;;;16.90;99.90;;;;;;5011747;28;20450;-77
2023/08/06 06:00:00;;;;;;;13.77;10.30;;;16.90;99.90;;;;;;4999026;28;20430;-78
2023/08/06 06:02:27;;;;;;;9.97;8.97;;;16.90;99.90;;;;;;5009329;28;20484;-75
2023/08/06 06:04:54;;;;;;;7.70;7.00;;;16.90;99.90;;;;;;5001951;28;20934;-77
2023/08/06 06:07:21;;;;;;;8.90;8.00;;;17.00;99.90;;;;;;4998128;28;20541;-77
2023/08/06 06:09:49;;;;;;;11.03;9.00;;;17.10;99.90;;;;;;5011884;28;20534;-78
2023/08/06 06:12:16;;;;;;;8.87;8.00;;;17.20;99.90;;;;;;5005935;28;20463;-77
2023/08/06 06:14:43;;;;;;;9.50;8.50;;;17.30;99.90;;;;;;5009550;28;20513;-78
2023/08/06 06:17:11;;;;;;;8.33;7.50;;;17.30;99.90;;;;;;5019324;28;20496;-77
2023/08/06 06:19:38;;;;;;;7.90;7.20;;;17.30;99.90;;;;;;5016242;28;20481;-78
2023/08/06 06:22:05;;;;;;;9.63;7.63;;;17.30;99.90;;;;;;5015183;28;20510;-77
2023/08/06 06:24:33;;;;;;;7.80;7.10;;;17.30;99.90;;;;;;5020099;28;20539;-77
2023/08/06 06:27:01;;;;;;;8.63;7.83;;;17.20;99.90;;;;;;5014466;28;20463;-75
2023/08/06 06:29:29;;;;;;;8.77;7.87;;;17.30;99.90;;;;;;5018184;28;20467;-79
2023/08/06 06:31:56;;;;;;;8.00;7.23;;;17.40;99.90;;;;;;5027227;28;20455;-76
2023/08/06 06:34:25;;;;;;;6.93;5.77;;;17.40;99.90;;;;;;5031329;28;20466;-77
2023/08/06 06:36:52;;;;;;;8.57;7.77;;;17.50;99.90;;;;;;5026207;28;20449;-77
2023/08/06 06:39:22;;;;;;;7.60;6.90;;;17.60;99.90;;;;;;5020216;28;20447;-75
2023/08/06 06:41:49;;;;;;;8.43;7.00;;;17.60;99.90;;;;;;5022222;28;20827;-77
2023/08/06 06:44:20;;;;;;;7.37;6.67;;;17.50;99.90;;;;;;5011926;28;20514;-75
2023/08/06 06:46:48;;;;;;;8.07;7.27;;;17.50;99.90;;;;;;5010042;28;20451;-76
2023/08/06 06:49:15;;;;;;;8.67;7.87;;;17.50;99.90;;;;;;5006394;28;20532;-75
2023/08/06 06:51:42;;;;;;;8.37;6.80;;;17.50;99.90;;;;;;5016364;28;20515;-76
2023/08/06 06:54:09;;;;;;;6.80;6.20;;;17.50;99.90;;;;;;5015656;28;20480;-77
2023/08/06 06:56:36;;;;;;;7.23;6.53;;;17.40;99.90;;;;;;5010631;28;20478;-78
2023/08/06 06:59:04;;;;;;;8.87;8.03;;;17.40;99.90;;;;;;5013359;28;20451;-76
2023/08/06 07:01:32;;;;;;;7.93;7.13;;;17.40;99.90;;;;;;5002046;28;20482;-77
2023/08/06 07:04:04;;;;;;;7.57;6.87;;;17.30;99.90;;;;;;5012533;28;20564;-76
2023/08/06 07:08:59;;;;;;;7.60;7.00;;;17.40;99.90;;;;;;5028307;28;20501;-76
2023/08/06 07:11:26;;;;;;;6.73;6.07;;;17.50;99.90;;;;;;5032466;28;20489;-79
2023/08/06 07:13:58;;;;;;;7.40;6.70;;;17.60;99.90;;;;;;5031273;28;20468;-78
2023/08/06 07:16:25;;;;;;;8.53;6.83;;;17.70;99.90;;;;;;5027146;28;20452;-77
2023/08/06 07:18:55;;;;;;;6.73;6.00;;;17.80;99.90;;;;;;5030568;28;20439;-78
2023/08/06 07:21:22;;;;;;;6.60;6.00;;;17.90;99.90;;;;;;5029710;28;20513;-78
2023/08/06 07:23:50;;;;;;;7.03;5.57;;;18.10;99.90;;;;;;5039355;28;20458;-78
2023/08/06 07:26:17;;;;;;;9.23;7.37;;;18.30;99.90;;;;;;5045355;28;20467;-78
2023/08/06 07:28:45;;;;;;;5.63;5.13;;;18.60;99.90;;;;;;5042527;28;20451;-80
2023/08/06 07:31:12;;;;;;;5.97;4.67;;;18.90;99.90;;;;;;5047326;28;20446;-79
2023/08/06 07:33:39;;;;;;;5.03;4.60;;;19.10;99.90;;;;;;5046561;28;20493;-79
2023/08/06 07:36:12;;;;;;;5.47;4.70;;;19.60;99.90;;;;;;5049758;28;20428;-78
2023/08/06 07:38:39;;;;;;;5.47;4.97;;;20.10;99.90;;;;;;5041236;28;20436;-78
2023/08/06 07:41:06;;;;;;;5.53;4.90;;;20.10;99.90;;;;;;5047469;28;20435;-78
2023/08/06 07:43:33;;;;;;;6.93;5.07;;;20.30;99.90;;;;;;5041577;28;20470;-80
2023/08/06 07:46:00;;;;;;;7.30;5.20;;;20.70;99.90;;;;;;5045650;28;20497;-79
2023/08/06 07:48:27;;;;;;;5.13;4.73;;;21.10;99.90;;;;;;5039768;28;20453;-75
2023/08/06 07:50:54;;;;;;;4.93;4.43;;;21.40;99.90;;;;;;5042514;28;20949;-76
2023/08/06 07:53:26;;;;;;;5.13;3.70;;;21.50;99.90;;;;;;5043070;28;20885;-76
2023/08/06 07:55:54;;;;;;;4.10;3.70;;;21.70;99.90;;;;;;5034039;28;20435;-76
2023/08/06 07:58:22;;;;;;;5.30;4.80;;;22.00;99.90;;;;;;5027302;28;20471;-75
2023/08/06 08:00:49;;;;;;;5.23;4.73;;;22.20;99.90;;;;;;5033068;28;20458;-77
2023/08/06 08:03:17;;;;;;;4.67;4.30;;;22.40;99.90;;;;;;5034562;28;20569;-76
2023/08/06 08:05:46;;;;;;;5.13;4.57;;;23.20;99.90;;;;;;5027998;28;20497;-76
2023/08/06 08:08:15;;;;;;;4.10;3.70;;;24.00;99.90;;;;;;5033913;28;20454;-77
2023/08/06 08:10:43;;;;;;;3.50;3.20;;;24.70;99.90;;;;;;5030657;28;20470;-77
2023/08/06 08:13:10;;;;;;;3.93;3.43;;;25.90;99.90;;;;;;5028033;28;20973;-76
2023/08/06 08:15:37;;;;;;;3.93;3.53;;;27.30;96.50;;;;;;5026841;28;20962;-76
2023/08/06 08:18:10;;;;;;;4.43;3.57;;;28.90;93.30;;;;;;5028967;28;20443;-76
2023/08/06 08:20:37;;;;;;;3.70;3.40;;;29.60;91.10;;;;;;5022888;28;20451;-78
2023/08/06 08:23:04;;;;;;;3.40;2.53;;;30.00;89.80;;;;;;5030954;28;20494;-77
2023/08/06 08:25:31;;;;;;;3.93;3.43;;;31.10;88.70;;;;;;5030734;28;20451;-76
2023/08/06 08:28:00;;;;;;;3.63;3.33;;;31.60;85.70;;;;;;5023869;28;20463;-76
2023/08/06 08:30:26;;;;;;;4.70;3.27;;;32.10;84.00;;;;;;5027613;28;20439;-76
2023/08/06 08:32:54;;;;;;;3.13;2.80;;;32.20;82.60;;;;;;5032859;28;20542;-74
2023/08/06 08:35:21;;;;;;;4.67;3.77;;;32.80;80.60;;;;;;5025105;28;20442;-76
2023/08/06 08:37:48;;;;;;;4.27;3.63;;;32.70;79.20;;;;;;5022762;28;20468;-78
2023/08/06 08:40:16;;;;;;;7.33;5.40;;;32.70;79.70;;;;;;5017736;28;20470;-77
2023/08/06 08:42:43;;;;;;;6.03;3.00;;;32.80;78.80;;;;;;5024301;28;20547;-77
2023/08/06 08:45:14;;;;;;;3.73;3.30;;;32.70;78.00;;;;;;5020281;28;20922;-76
2023/08/06 08:47:42;;;;;;;4.50;4.13;;;32.40;79.20;;;;;;5026589;28;20432;-75
2023/08/06 08:50:10;;;;;;;5.57;3.20;;;32.20;79.10;;;;;;5025350;28;20526;-77
2023/08/06 08:52:40;;;;;;;4.37;3.40;;;32.30;79.50;;;;;;5027634;28;20440;-76
2023/08/06 08:55:09;;;;;;;3.40;3.10;;;32.50;77.60;;;;;;5031011;28;20917;-74
2023/08/06 08:57:35;;;;;;;4.50;3.50;;;33.00;77.30;;;;;;5020775;28;20440;-76
2023/08/06 09:00:03;;;;;;;3.00;2.80;;;33.10;77.50;;;;;;5025578;28;20620;-76
2023/08/06 09:02:33;;;;;;;4.13;2.70;;;33.30;76.30;;;;;;5017394;28;20484;-73
2023/08/06 09:05:02;;;;;;;3.20;2.70;;;32.90;77.40;;;;;;5024705;28;20467;-75
2023/08/06 09:07:34;;;;;;;2.87;2.53;;;33.10;76.20;;;;;;5021999;28;20513;-72
2023/08/06 09:10:04;;;;;;;3.70;3.13;;;33.30;75.90;;;;;;5016970;28;20444;-74
2023/08/06 09:12:31;;;;;;;3.87;3.57;;;33.10;76.70;;;;;;5026631;28;20976;-75
2023/08/06 09:14:59;;;;;;;6.63;3.10;;;33.00;77.30;;;;;;5018488;28;20539;-74
2023/08/06 09:17:27;;;;;;;4.30;3.63;;;32.80;77.60;;;;;;5018550;28;20443;-76
2023/08/06 09:19:56;;;;;;;3.10;2.80;;;32.70;79.20;;;;;;5013757;28;20484;-77
2023/08/06 09:22:23;;;;;;;3.20;2.87;;;32.70;78.40;;;;;;5032441;28;20884;-76
2023/08/06 09:24:50;;;;;;;3.40;3.07;;;32.50;78.40;;;;;;5031559;28;21019;-77
2023/08/06 09:27:18;;;;;;;3.10;2.80;;;32.20;77.80;;;;;;5032585;28;20534;-75
2023/08/06 09:29:46;;;;;;;4.50;3.20;;;32.00;79.70;;;;;;5026495;28;20440;-75
2023/08/06 09:32:13;;;;;;;3.40;3.10;;;32.20;78.80;;;;;;5032145;28;20482;-79
2023/08/06 09:34:41;;;;;;;3.13;2.83;;;32.80;76.60;;;;;;5032485;28;20501;-75
2023/08/06 09:37:10;;;;;;;6.90;3.00;;;33.10;78.50;;;;;;5035145;28;20962;-76
2023/08/06 09:39:41;;;;;;;2.80;2.43;;;32.90;76.80;;;;;;5031670;28;20444;-74
2023/08/06 09:42:08;;;;;;;5.40;2.73;;;32.30;77.90;;;;;;5028310;28;20572;-74
2023/08/06 09:44:35;;;;;;;2.50;2.30;;;32.10;79.20;;;;;;5021711;28;20490;-75
2023/08/06 09:47:04;;;;;;;3.77;3.37;;;31.90;80.10;;;;;;5028966;28;20440;-77
2023/08/06 09:49:43;;;;;;;3.03;2.73;;;31.50;79.60;;;;;;5030678;28;20562;-76
2023/08/06 09:52:15;;;;;;;2.70;2.00;;;31.10;82.20;;;;;;5023921;28;20570;-77
2023/08/06 09:54:45;;;;;;;2.50;2.30;;;31.40;81.30;;;;;;5028347;28;20847;-75
2023/08/06 09:57:13;;;;;;;4.93;2.37;;;31.30;79.80;;;;;;5031984;28;20455;-76
2023/08/06 09:59:41;;;;;;;2.30;2.10;;;31.30;80.10;;;;;;5034388;28;20435;-75
2023/08/06 10:02:14;;;;;;;4.10;2.53;;;31.20;81.30;;;;;;5030900;28;20876;-76
2023/08/06 10:04:41;;;;;;;2.17;1.97;;;31.20;79.70;;;;;;5026714;28;20470;-76
2023/08/06 10:07:09;;;;;;;2.40;2.20;;;31.20;79.50;;;;;;5030123;28;20455;-76
2023/08/06 10:09:37;;;;;;;4.10;2.27;;;31.30;78.80;;;;;;5024072;28;20950;-77
2023/08/06 10:12:05;;;;;;;3.40;2.50;;;31.40;79.00;;;;;;5029270;28;20449;-75
2023/08/06 10:14:34;;;;;;;3.73;2.57;;;30.80;79.70;;;;;;5031717;28;20501;-74
2023/08/06 10:17:02;;;;;;;2.30;1.67;;;30.30;81.70;;;;;;5028571;28;20479;-76
2023/08/06 10:19:30;;;;;;;2.00;1.60;;;30.80;80.50;;;;;;5029185;28;20467;-74
2023/08/06 10:22:11;;;;;;;2.50;1.90;;;31.20;80.40;;;;;;5024418;28;20842;-75
2023/08/06 10:24:49;;;;;;;1.90;1.70;;;31.40;80.10;;;;;;5029985;28;20467;-75
2023/08/06 10:27:29;;;;;;;3.07;2.30;;;31.50;78.80;;;;;;5029125;28;20438;-76
2023/08/06 10:29:56;;;;;;;2.40;1.90;;;31.40;77.70;;;;;;5022145;28;20509;-74
2023/08/06 10:32:40;;;;;;;2.30;2.10;;;30.90;80.10;;;;;;5028937;28;20522;-74
2023/08/06 10:35:07;;;;;;;2.03;1.83;;;30.80;79.90;;;;;;5025458;28;20523;-74
2023/08/06 10:37:38;;;;;;;2.10;1.90;;;30.60;79.60;;;;;;5031904;28;20449;-76
2023/08/06 10:40:08;;;;;;;2.57;1.90;;;30.70;80.80;;;;;;5025411;28;20490;-75
2023/08/06 10:42:37;;;;;;;2.00;1.80;;;30.80;81.20;;;;;;5027085;28;20475;-75
2023/08/06 10:45:15;;;;;;;4.87;3.90;;;30.60;81.20;;;;;;5027556;28;20462;-76
2023/08/06 10:47:42;;;;;;;2.50;2.07;;;30.50;82.70;;;;;;5024992;28;20455;-74
2023/08/06 10:50:12;;;;;;;2.40;2.13;;;29.80;83.00;;;;;;5031341;28;20959;-74
2023/08/06 10:52:39;;;;;;;2.23;1.73;;;29.50;84.90;;;;;;5024091;28;20526;-74
2023/08/06 10:55:09;;;;;;;2.43;1.90;;;29.10;85.30;;;;;;5033267;28;20459;-76
2023/08/06 10:57:35;;;;;;;2.33;2.00;;;28.60;82.60;;;;;;5033813;28;20439;-74
2023/08/06 11:00:05;;;;;;;2.30;1.77;;;28.40;82.40;;;;;;5032986;28;20554;-75
2023/08/06 11:02:34;;;;;;;2.57;1.87;;;28.10;80.60;;;;;;5029074;28;20488;-73
2023/08/06 11:05:06;;;;;;;5.83;3.53;;;27.80;81.00;;;;;;5032983;28;20529;-77
2023/08/06 11:07:33;;;;;;;2.67;2.00;;;27.60;81.90;;;;;;5029631;28;20513;-74
2023/08/06 11:10:04;;;;;;;3.00;1.83;;;27.40;83.40;;;;;;5033812;28;20513;-75
2023/08/06 11:12:33;;;;;;;3.30;2.03;;;27.20;82.90;;;;;;5034393;28;20463;-74
2023/08/06 11:15:00;;;;;;;4.50;4.10;;;27.10;85.50;;;;;;5033865;28;20917;-75
2023/08/06 11:17:28;;;;;;;3.27;2.70;;;27.10;87.10;;;;;;5034373;28;20526;-75
2023/08/06 11:19:56;;;;;;;3.20;2.57;;;27.10;88.50;;;;;;5021873;28;20440;-75
2023/08/06 11:22:23;;;;;;;3.43;2.27;;;27.00;87.10;;;;;;5028953;28;20481;-77
2023/08/06 11:24:50;;;;;;;4.20;2.00;;;27.00;88.80;;;;;;5024083;28;21093;-77
2023/08/06 11:27:18;;;;;;;2.90;2.10;;;27.10;87.80;;;;;;5033300;28;20802;-74
2023/08/06 11:29:46;;;;;;;2.80;2.60;;;27.20;87.60;;;;;;5031144;28;20501;-75
2023/08/06 11:32:13;;;;;;;4.33;2.40;;;27.30;87.70;;;;;;5030575;28;20530;-76
2023/08/06 11:34:41;;;;;;;2.47;2.13;;;27.20;88.30;;;;;;5028014;28;20547;-75
2023/08/06 11:37:08;;;;;;;3.07;2.43;;;27.20;86.70;;;;;;5029819;28;20455;-75
2023/08/06 11:39:36;;;;;;;2.90;2.20;;;27.30;86.50;;;;;;5033105;28;20474;-75
2023/08/06 11:42:04;;;;;;;3.27;3.03;;;27.20;87.60;;;;;;5032709;28;20518;-75
2023/08/06 11:44:33;;;;;;;3.17;2.30;;;27.00;88.90;;;;;;5034781;28;20562;-75
2023/08/06 11:47:04;;;;;;;8.50;2.60;;;26.80;90.50;;;;;;5038861;28;20450;-76
2023/08/06 11:49:43;;;;;;;3.37;1.83;;;26.90;89.50;;;;;;5040464;28;20524;-75
2023/08/06 11:52:14;;;;;;;2.40;2.17;;;27.20;86.80;;;;;;5042116;28;20473;-74
2023/08/06 11:54:41;;;;;;;3.80;2.60;;;26.90;84.60;;;;;;5035921;28;20467;-76
2023/08/06 11:57:09;;;;;;;2.20;2.00;;;27.00;86.70;;;;;;5033268;28;20447;-75
2023/08/06 11:59:37;;;;;;;2.23;2.00;;;27.10;87.20;;;;;;5022575;28;20443;-75
2023/08/06 12:02:10;;;;;;;3.20;1.93;;;27.30;87.20;;;;;;5030661;28;20479;-76
2023/08/06 12:04:59;;;;;;;2.60;2.20;;;27.30;85.80;;;;;;5027562;28;20502;-76
2023/08/06 12:07:28;;;;;;;2.07;1.80;;;27.00;85.80;;;;;;5032018;28;20538;-76
2023/08/06 12:09:55;;;;;;;2.00;1.80;;;26.90;88.30;;;;;;5023703;28;20444;-76
2023/08/06 12:12:22;;;;;;;2.20;2.00;;;27.10;88.00;;;;;;5025276;28;20823;-75
2023/08/06 12:14:49;;;;;;;3.00;2.30;;;27.20;88.20;;;;;;5029997;28;20534;-74
2023/08/06 12:17:18;;;;;;;2.50;1.97;;;27.20;89.00;;;;;;5025693;28;20530;-75
2023/08/06 12:19:47;;;;;;;2.07;1.80;;;27.20;88.60;;;;;;5029109;28;20439;-75
2023/08/06 12:22:15;;;;;;;2.33;1.63;;;27.20;88.30;;;;;;5019344;28;20443;-76
2023/08/06 12:24:43;;;;;;;2.57;2.30;;;27.20;87.10;;;;;;5028417;28;20493;-76
2023/08/06 12:27:10;;;;;;;2.47;1.87;;;27.20;88.90;;;;;;5032919;28;20489;-75
2023/08/06 12:29:38;;;;;;;2.40;2.20;;;27.10;88.90;;;;;;5032854;28;20446;-76
2023/08/06 12:32:06;;;;;;;1.90;1.70;;;26.80;89.40;;;;;;5032867;28;20529;-75
2023/08/06 12:34:35;;;;;;;2.63;2.13;;;26.50;88.60;;;;;;5033376;28;20506;-76
2023/08/06 12:37:03;;;;;;;2.13;1.93;;;26.50;88.60;;;;;;5030999;28;20475;-75
2023/08/06 12:39:31;;;;;;;2.33;2.07;;;26.40;88.40;;;;;;5032136;28;20445;-75
2023/08/06 12:41:58;;;;;;;3.87;2.30;;;26.30;90.20;;;;;;5031986;28;21005;-76
2023/08/06 12:44:25;;;;;;;2.33;1.90;;;26.50;90.40;;;;;;5030123;28;20513;-73
2023/08/06 12:46:52;;;;;;;2.60;1.93;;;26.50;90.30;;;;;;5031416;28;20845;-75
2023/08/06 12:49:20;;;;;;;2.97;2.00;;;26.50;90.20;;;;;;5032428;28;20446;-77
2023/08/06 12:51:49;;;;;;;2.47;2.27;;;26.40;90.80;;;;;;5031887;28;20484;-78
2023/08/06 12:54:18;;;;;;;2.97;2.13;;;26.20;91.10;;;;;;5024476;28;20864;-75